Latest Weather Observations for Low Rocky Point

IDT60801

Issued at 2:32 pm EDT Friday 20 January 2017 (issued every 30 minutes, with the page automatically refreshed every 10 minutes)

About weather observations | Map of weather stations | Latest weather observations for TAS | Other Formats
Station Details ID: 097080 Name: LOW ROCKY POINT Lat: -42.98 Lon: 145.50 Height: 34.0 m
Data from the previous 72 hours. | See also: Recent months at Low Rocky Point
Date/Time
EDT
Temp
°C
App
Temp
°C
Dew
Point
°C
Rel
Hum
%
Delta-T
°C
Wind Press
QNH
hPa
Press
MSL
hPa
Rain since
9am
mm
Dir  Spd
km/h
Gust
km/h
Spd
kts
Gust
kts
20/02:30pm 15.2 10.4 12.9 86 1.3 SSW 30 41 16 22 999.6 999.5 0.6
20/02:00pm 16.5 13.2 14.0 85 1.4 S 24 33 13 18 999.4 999.3 0.6
20/01:30pm 16.6 12.7 14.4 87 1.3 S 28 37 15 20 999.4 999.3 0.6
20/01:00pm 16.5 13.3 15.2 92 0.8 S 26 33 14 18 999.0 999.0 0.6
20/12:30pm 15.2 12.1 14.6 96 0.3 S 24 32 13 17 998.8 998.7 0.4
20/12:00pm 14.8 13.1 14.6 99 0.1 S 17 20 9 11 998.7 998.7 0.4
20/11:30am 14.1 12.1 13.9 99 0.1 SE 17 20 9 11 998.4 998.3 0.4
20/11:00am 13.0 10.6 12.8 99 0.1 ESE 17 20 9 11 998.1 998.1 0.4
20/10:30am 12.7 10.6 12.5 99 0.1 E 15 20 8 11 998.1 998.0 0.4
20/10:00am 12.2 9.2 12.0 99 0.1 E 19 26 10 14 998.5 998.5 0.2
20/09:30am 11.8 9.1 11.6 99 0.1 E 17 24 9 13 999.0 998.9 0.2
20/09:00am 11.7 8.9 11.5 99 0.1 E 17 24 9 13 999.1 999.1 7.8
20/08:30am 11.4 8.0 11.2 99 0.1 ESE 20 28 11 15 999.4 999.3 7.2
20/08:00am 11.3 7.5 11.1 99 0.1 ESE 22 28 12 15 999.5 999.5 6.2
20/07:30am 11.4 7.6 11.2 99 0.1 ESE 22 30 12 16 999.9 999.8 5.4
20/07:00am 11.5 6.9 11.2 98 0.2 ESE 26 33 14 18 1000.0 1000.0 5.2
20/06:30am 11.8 8.1 11.5 98 0.2 SE 22 28 12 15 1000.5 1000.4 4.8
20/06:00am 11.5 8.2 10.9 96 0.3 SE 19 26 10 14 1000.9 1000.9 4.6
20/05:30am 11.6 8.6 10.8 95 0.4 SE 17 22 9 12 1001.1 1001.1 4.6
20/05:00am 11.9 9.0 11.0 94 0.5 SE 17 22 9 12 1001.0 1001.0 4.0
20/04:30am 11.7 8.0 10.3 91 0.7 ESE 20 24 11 13 1000.8 1000.7 3.2
20/04:00am 11.3 9.1 9.2 87 1.1 E 11 13 6 7 1002.4 1002.4 2.6
20/03:30am 11.4 8.7 9.0 85 1.2 N 13 17 7 9 1003.5 1003.5 1.8
20/03:00am 11.5 7.4 8.5 82 1.5 NE 20 24 11 13 1003.6 1003.6 0.6
20/02:30am 12.2 8.3 8.7 79 1.7 NNE 19 24 10 13 1004.2 1004.2 0.2
20/02:00am 13.1 10.1 9.2 77 2.0 NNE 15 17 8 9 1004.5 1004.5 0.0
20/01:30am 12.8 10.5 8.9 77 2.0 NNE 11 15 6 8 1004.0 1004.0 0.0
20/01:00am 12.9 10.5 8.8 76 2.1 ENE 11 13 6 7 1003.6 1003.6 0.0
20/12:30am 13.2 11.3 8.9 75 2.2 ENE 9 9 5 5 1004.6 1004.6 0.0
20/12:00am 13.5 12.1 9.0 74 2.3 S 6 13 3 7 1005.2 1005.2 0.0
 
Date/Time
EDT
Temp
°C
App
Temp
°C
Dew
Point
°C
Rel
Hum
%
Delta-T
°C
Wind Press
QNH
hPa
Press
MSL
hPa
Rain since
9am
mm
Dir  Spd
km/h
Gust
km/h
Spd
kts
Gust
kts
19/11:30pm 13.4 11.8 8.9 74 2.3 ENE 7 9 4 5 1005.3 1005.3 0.0
19/11:00pm 13.2 11.3 8.9 75 2.2 NE 9 11 5 6 1005.8 1005.8 0.0
19/10:30pm 13.6 11.8 9.3 75 2.2 E 9 13 5 7 1006.2 1006.2 0.0
19/10:00pm 14.0 11.8 9.4 74 2.4 E 11 17 6 9 1007.1 1007.1 0.0
19/09:30pm 14.5 11.5 9.3 71 2.7 SE 15 20 8 11 1007.6 1007.6 0.0
19/09:00pm 14.2 11.2 9.4 73 2.5 SE 15 20 8 11 1008.2 1008.2 0.0
19/08:30pm 14.3 10.5 9.7 74 2.4 SE 20 28 11 15 1008.4 1008.4 0.0
19/08:00pm 14.3 9.3 9.5 73 2.5 SE 26 33 14 18 1008.5 1008.5 0.0
19/07:30pm 14.5 9.5 9.7 73 2.5 SE 26 32 14 17 1009.7 1009.7 0.0
19/07:00pm 14.6 10.0 9.6 72 2.6 SSE 24 32 13 17 1010.4 1010.4 0.0
19/06:30pm 14.7 9.6 9.1 69 2.9 SSE 26 32 14 17 1010.3 1010.3 0.0
19/06:00pm 15.7 11.0 9.1 65 3.4 SSE 24 33 13 18 1010.3 1010.3 0.0
19/05:30pm 16.1 10.5 8.8 62 3.7 SSE 28 35 15 19 1010.6 1010.6 0.0
19/05:00pm 16.6 11.0 8.8 60 4.0 SSE 28 35 15 19 1011.1 1011.1 0.0
19/04:30pm 17.0 11.3 8.4 57 4.4 SSE 28 35 15 19 1011.2 1011.2 0.0
19/04:00pm 17.4 12.1 8.5 56 4.6 S 26 33 14 18 1011.9 1011.9 0.0
19/03:30pm 17.1 11.6 7.7 54 4.7 S 26 35 14 19 1012.5 1012.5 0.0
19/03:00pm 17.0 11.7 8.4 57 4.4 S 26 35 14 19 1013.0 1013.0 0.0
19/02:30pm 16.9 11.0 7.5 54 4.7 S 28 33 15 18 1013.6 1013.6 0.0
19/02:00pm 17.0 11.8 7.4 53 4.8 S 24 30 13 16 1014.0 1014.0 0.0
19/01:30pm 16.5 11.6 6.9 53 4.7 S 22 30 12 16 1014.5 1014.5 0.0
19/01:00pm 16.5 11.5 6.6 52 4.9 S 22 30 12 16 1015.0 1015.0 0.0
19/12:30pm 16.9 12.1 7.3 53 4.8 S 22 30 12 16 1015.6 1015.5 0.0
19/12:00pm 16.1 11.5 6.3 52 4.8 SSE 20 28 11 15 1016.2 1016.1 0.0
19/11:30am 16.0 11.0 6.4 53 4.7 SSE 22 28 12 15 1016.5 1016.4 0.0
19/11:00am 16.1 12.1 6.5 53 4.7 SE 17 28 9 15 1016.9 1016.9 0.0
19/10:30am 16.7 12.8 7.1 53 4.8 SE 17 26 9 14 1017.4 1017.3 0.0
19/10:00am 14.7 10.6 6.0 56 4.2 SSE 17 24 9 13 1017.8 1017.8 0.0
19/09:30am 14.7 10.5 5.8 55 4.2 SSE 17 22 9 12 1017.9 1017.8 0.0
19/09:00am 14.3 10.5 7.4 63 3.4 SSE 17 26 9 14 1018.3 1018.3 0.0
19/08:30am 13.0 9.5 8.7 75 2.2 SSE 17 26 9 14 1018.3 1018.2 0.0
19/08:00am 12.4 9.6 8.7 78 1.8 ESE 13 19 7 10 1018.0 1018.0 0.0
19/07:30am 10.7 8.8 6.8 77 1.8 E 6 9 3 5 1018.0 1017.9 0.0
19/07:00am 10.7 8.3 6.8 77 1.8 E 9 20 5 11 1017.8 1017.8 0.0
19/06:30am 10.0 7.9 6.0 76 1.8 E 6 15 3 8 1017.7 1017.6 0.0
19/06:00am 10.9 7.4 7.0 77 1.9 SSE 15 22 8 12 1017.4 1017.4 0.0
19/05:30am 9.9 7.2 5.7 75 1.9 NE 9 13 5 7 1017.2 1017.1 0.0
19/05:00am 10.9 7.6 6.5 74 2.1 SSE 13 19 7 10 1017.1 1017.1 0.0
19/04:30am 10.0 7.2 5.2 72 2.2 E 9 11 5 6 1016.9 1016.8 0.0
19/04:00am 11.1 7.5 5.2 67 2.7 SSE 13 19 7 10 1017.0 1017.0 0.0
19/03:30am 10.6 7.4 4.9 68 2.6 SE 11 15 6 8 1017.1 1017.0 0.0
19/03:00am 10.9 6.6 5.4 69 2.5 S 17 20 9 11 1017.4 1017.4 0.0
19/02:30am 11.2 7.1 6.1 71 2.4 S 17 22 9 12 1017.7 1017.6 0.0
19/02:00am 11.6 7.1 6.9 73 2.2 S 20 26 11 14 1018.1 1018.1 0.0
19/01:30am 11.8 7.3 7.1 73 2.3 S 20 30 11 16 1018.3 1018.2 0.0
19/01:00am 11.8 7.6 7.3 74 2.2 S 19 26 10 14 1018.2 1018.2 0.0
19/12:30am 11.9 7.8 7.8 76 2.0 S 19 26 10 14 1018.1 1018.0 0.0
19/12:00am 11.9 8.6 8.0 77 1.9 S 15 20 8 11 1018.0 1018.0 0.0
 
Date/Time
EDT
Temp
°C
App
Temp
°C
Dew
Point
°C
Rel
Hum
%
Delta-T
°C
Wind Press
QNH
hPa
Press
MSL
hPa
Rain since
9am
mm
Dir  Spd
km/h
Gust
km/h
Spd
kts
Gust
kts
18/11:30pm 12.0 8.0 8.3 78 1.8 S 19 24 10 13 1018.2 1018.1 0.0
18/11:00pm 12.0 8.3 8.1 77 1.9 S 17 22 9 12 1018.1 1018.1 0.0
18/10:30pm 12.2 8.5 8.1 76 2.0 S 17 24 9 13 1018.1 1018.0 0.0
18/10:00pm 12.1 8.7 7.8 75 2.1 SSW 15 22 8 12 1018.0 1018.0 0.0
18/09:30pm 12.5 7.5 8.2 75 2.1 SSW 24 30 13 16 1017.8 1017.7 0.0
18/09:00pm 12.6 8.5 7.9 73 2.3 SW 19 28 10 15 1017.7 1017.7 0.0
18/08:30pm 12.8 8.5 7.7 71 2.5 SW 20 28 11 15 1017.6 1017.5 0.0
18/08:00pm 13.2 8.8 7.6 69 2.7 SW 20 30 11 16 1017.5 1017.5 0.0
18/07:30pm 13.4 8.6 7.2 66 3.0 SW 22 32 12 17 1017.3 1017.2 0.0
18/07:00pm 14.0 9.0 6.6 61 3.6 SW 22 32 12 17 1017.0 1017.0 0.0
18/06:30pm 14.3 8.9 6.4 59 3.8 SSW 24 32 13 17 1016.7 1016.6 0.0
18/06:00pm 16.0 11.4 8.2 60 3.9 SW 22 32 12 17 1016.4 1016.3 0.0
18/05:30pm 14.9 9.8 7.5 61 3.7 SW 24 30 13 16 1016.1 1016.0 0.0
18/05:00pm 16.3 11.4 8.3 59 4.1 SW 24 33 13 18 1015.8 1015.7 0.0
18/04:30pm 14.8 8.9 7.6 62 3.6 SW 28 37 15 20 1015.8 1015.7 0.0
18/04:00pm 14.8 9.6 7.4 61 3.7 SW 24 35 13 19 1015.6 1015.5 0.0
18/03:30pm 15.3 10.3 8.1 62 3.6 SW 24 32 13 17 1015.2 1015.2 0.0
18/03:00pm 16.0 10.3 8.5 61 3.8 SW 28 41 15 22 1015.0 1015.0 0.0
18/02:30pm 16.8 10.5 9.0 60 4.0 SW 32 43 17 23 1014.8 1014.8 0.0
18/02:00pm 16.2 9.6 7.9 58 4.2 SW 32 43 17 23 1014.5 1014.5 0.0
18/01:30pm 16.1 10.6 9.3 64 3.5 SW 28 43 15 23 1014.1 1014.1 0.0
18/01:00pm 15.4 9.2 7.9 61 3.8 SW 30 44 16 24 1013.7 1013.7 0.0
18/12:30pm 15.7 9.1 7.7 59 4.0 SW 32 43 17 23 1013.3 1013.3 0.0
18/12:00pm 15.8 9.4 9.2 65 3.4 SW 33 48 18 26 1013.1 1013.1 0.0
18/11:30am 13.9 7.4 8.9 72 2.5 WSW 33 48 18 26 1012.6 1012.6 0.0
18/11:00am 15.2 9.2 10.2 72 2.6 SW 32 43 17 23 1012.0 1012.0 0.0
18/10:30am 14.3 7.5 9.3 72 2.6 SW 35 48 19 26 1011.6 1011.6 0.0
18/10:00am 14.7 9.1 10.1 74 2.4 SW 30 41 16 22 1011.1 1011.1 0.0
18/09:30am 14.0 7.9 9.6 75 2.3 SW 32 46 17 25 1010.5 1010.5 0.0
18/09:00am 13.3 7.2 10.3 82 1.6 SW 33 44 18 24 1010.2 1010.2 4.0
18/08:30am 11.8 5.1 9.7 87 1.1 WSW 35 46 19 25 1009.5 1009.5 4.0
18/08:00am 12.8 5.2 9.1 78 1.9 WSW 39 50 21 27 1009.0 1009.0 3.6
18/07:30am 12.7 5.6 9.7 82 1.5 WSW 37 46 20 25 1008.5 1008.5 3.6
18/07:01am 12.5 5.5 9.9 84 1.3 W 37 57 20 31 1007.8 1007.8 3.6
18/07:00am 12.6 5.6 10.0 84 1.3 W 37 48 20 26 1007.8 1007.8 3.6
18/06:30am 12.3 3.4 9.3 82 1.5 W 46 59 25 32 1007.4 1007.4 3.6
18/06:09am 12.9 4.1 9.5 80 1.7 W 46 65 25 35 1007.0 1007.0 3.6
18/06:00am 12.7 4.3 9.7 82 1.5 W 44 56 24 30 1006.8 1006.8 3.6
18/05:30am 12.5 4.5 10.4 87 1.1 W 43 54 23 29 1006.4 1006.4 3.4
18/05:00am 11.8 2.7 9.7 87 1.1 W 48 69 26 37 1005.6 1005.6 3.4
18/04:51am 12.2 2.7 9.8 85 1.2 W 50 69 27 37 1005.5 1005.5 3.4
18/04:30am 12.6 4.1 10.7 88 1.0 W 46 56 25 30 1005.2 1005.2 3.4
18/04:00am 12.5 3.7 11.1 91 0.7 W 48 59 26 32 1004.9 1004.9 3.4
18/03:30am 12.8 3.9 11.9 94 0.5 W 50 61 27 33 1004.5 1004.5 3.4
18/03:00am 12.4 3.4 11.6 95 0.4 WNW 50 63 27 34 1004.1 1004.1 3.4
18/02:30am 11.4 0.7 9.7 89 0.9 WNW 56 70 30 38 1004.5 1004.5 2.2
18/02:00am 13.9 5.5 12.3 90 0.9 WNW 48 57 26 31 1004.3 1004.3 1.4
18/01:30am 13.8 6.2 12.4 91 0.8 WNW 44 54 24 29 1004.6 1004.6 1.4
18/01:00am 13.6 6.2 12.5 93 0.6 WNW 43 52 23 28 1004.9 1004.9 1.4
18/12:30am 13.5 6.6 12.7 95 0.4 WNW 41 48 22 26 1005.0 1005.0 1.4
18/12:00am 13.6 6.8 13.1 97 0.3 WNW 41 50 22 27 1005.2 1005.2 1.4
 
Date/Time
EDT
Temp
°C
App
Temp
°C
Dew
Point
°C
Rel
Hum
%
Delta-T
°C
Wind Press
QNH
hPa
Press
MSL
hPa
Rain since
9am
mm
Dir  Spd
km/h
Gust
km/h
Spd
kts
Gust
kts
17/11:30pm 13.6 6.9 13.3 98 0.2 WNW 41 48 22 26 1005.2 1005.2 1.4
17/11:00pm 13.6 7.3 13.4 99 0.1 WNW 39 46 21 25 1005.3 1005.3 1.4
17/10:30pm 13.5 7.5 13.3 99 0.1 WNW 37 46 20 25 1005.3 1005.3 1.4
17/10:00pm 13.3 6.5 13.1 99 0.1 W 41 46 22 25 1005.1 1005.1 1.4
17/09:30pm 13.6 7.3 13.4 99 0.1 W 39 46 21 25 1004.6 1004.6 1.4
17/09:00pm 13.9 8.0 13.7 99 0.1 WNW 37 44 20 24 1003.9 1003.9 1.4
17/08:30pm 14.2 8.4 14.0 99 0.1 WNW 37 44 20 24 1004.3 1004.3 1.4
17/08:00pm 14.9 9.4 14.7 99 0.1 NW 37 44 20 24 1003.8 1003.8 0.6
17/07:30pm 14.8 9.6 14.6 99 0.1 NW 35 44 19 24 1004.0 1004.0 0.6
17/07:00pm 14.7 9.5 14.5 99 0.1 NW 35 44 19 24 1003.8 1003.8 0.6
17/06:30pm 14.7 10.1 14.5 99 0.1 NW 32 39 17 21 1003.7 1003.7 0.6
17/06:00pm 14.9 10.3 14.7 99 0.1 NW 32 37 17 20 1003.4 1003.4 0.6
17/05:30pm 15.1 10.4 14.9 99 0.1 NW 33 41 18 22 1003.5 1003.5 0.6
17/05:00pm 14.8 9.6 14.6 99 0.1 NW 35 46 19 25 1003.8 1003.8 0.6
17/04:30pm 15.1 10.6 14.8 98 0.2 NW 32 39 17 21 1004.0 1004.0 0.0
17/04:00pm 15.5 10.7 14.7 95 0.5 NW 33 41 18 22 1004.1 1004.1 0.0
17/03:30pm 16.3 11.4 15.2 93 0.6 NW 35 43 19 23 1004.2 1004.2 0.0
17/03:00pm 16.2 11.1 14.9 92 0.8 NW 35 41 19 22 1004.4 1004.4 0.0

Other Formats:

Comma delimited format used in spreadsheet applications
http://www.bom.gov.au/fwo/IDT60801/IDT60801.95961.axf

JavaScript Object Notation format (JSON) in row-major order
http://www.bom.gov.au/fwo/IDT60801/IDT60801.95961.json